createdAt,value
2023-04-30T00:02:28.253Z,24.60
2023-04-30T00:04:57.327Z,24.60
2023-04-30T00:07:26.392Z,24.50
2023-04-30T00:09:55.713Z,24.50
2023-04-30T00:12:25.049Z,24.60
2023-04-30T00:14:54.081Z,24.60
2023-04-30T00:17:23.087Z,24.60
2023-04-30T00:19:52.309Z,24.50
2023-04-30T00:22:21.794Z,24.50
2023-04-30T00:24:50.870Z,24.50
2023-04-30T00:27:20.562Z,24.50
2023-04-30T00:29:49.511Z,24.60
2023-04-30T00:32:18.526Z,24.50
2023-04-30T00:34:47.884Z,24.60
2023-04-30T00:37:16.940Z,24.60
2023-04-30T00:39:45.950Z,24.60
2023-04-30T00:42:14.934Z,24.60
2023-04-30T00:44:43.967Z,24.60
2023-04-30T00:47:12.991Z,24.60
2023-04-30T00:49:42.041Z,24.60
2023-04-30T00:52:11.145Z,24.60
2023-04-30T00:54:40.546Z,24.60
2023-04-30T00:57:11.170Z,24.60
2023-04-30T00:59:41.172Z,24.70
2023-04-30T01:02:11.030Z,24.70
2023-04-30T01:04:40.682Z,24.70
2023-04-30T01:07:09.829Z,24.70
2023-04-30T01:09:39.306Z,24.70
2023-04-30T01:12:17.257Z,24.80
2023-04-30T01:15:19.663Z,24.80
2023-04-30T01:18:13.829Z,24.80
2023-04-30T01:21:10.210Z,24.80
2023-04-30T01:24:09.896Z,24.80
2023-04-30T01:27:09.533Z,24.80
2023-04-30T01:29:41.094Z,24.90
2023-04-30T01:32:11.554Z,24.90
2023-04-30T01:34:40.532Z,24.90
2023-04-30T01:37:28.569Z,24.90
2023-04-30T01:40:13.408Z,25.00
2023-04-30T01:42:54.316Z,25.00
2023-04-30T01:45:35.484Z,25.10
2023-04-30T01:48:16.356Z,25.10
2023-04-30T01:51:04.752Z,25.10
2023-04-30T01:53:45.564Z,25.10
2023-04-30T01:56:44.067Z,25.10
2023-04-30T01:59:15.907Z,25.10
2023-04-30T02:01:45.097Z,25.20
2023-04-30T02:04:14.166Z,25.20
2023-04-30T02:06:43.294Z,25.30
2023-04-30T02:09:12.516Z,25.30
2023-04-30T02:11:41.904Z,25.30
2023-04-30T02:14:10.847Z,25.40
2023-04-30T02:16:39.922Z,25.40
2023-04-30T02:19:09.109Z,25.40
2023-04-30T02:21:38.020Z,25.40
2023-04-30T02:24:07.443Z,25.50
2023-04-30T02:26:36.589Z,25.50
2023-04-30T02:29:05.586Z,25.60
2023-04-30T02:31:34.612Z,25.60
2023-04-30T02:34:03.577Z,25.60
2023-04-30T02:36:37.500Z,25.60
2023-04-30T02:39:06.249Z,25.70
2023-04-30T02:41:35.231Z,25.70
2023-04-30T02:44:04.553Z,25.80
2023-04-30T02:46:33.522Z,25.80
2023-04-30T02:49:02.589Z,25.90
2023-04-30T02:51:32.521Z,25.90
2023-04-30T02:54:01.682Z,25.90
2023-04-30T02:56:30.733Z,25.90
2023-04-30T02:58:59.756Z,25.90
2023-04-30T03:01:29.087Z,26.00
2023-04-30T03:03:59.546Z,26.00
2023-04-30T03:06:28.610Z,26.00
2023-04-30T03:08:57.663Z,26.00
2023-04-30T03:11:26.857Z,26.10
2023-04-30T03:13:56.652Z,26.10
2023-04-30T03:16:25.730Z,26.10
2023-04-30T03:18:54.779Z,26.20
2023-04-30T03:21:23.785Z,26.20
2023-04-30T03:23:52.911Z,26.20
2023-04-30T03:26:23.276Z,26.20
2023-04-30T03:28:52.331Z,26.20
2023-04-30T03:31:21.392Z,26.30
2023-04-30T03:33:50.449Z,26.20
2023-04-30T03:36:19.517Z,26.30
2023-04-30T03:38:48.536Z,26.30
2023-04-30T03:41:17.576Z,26.30
2023-04-30T03:43:47.474Z,26.30
2023-04-30T03:46:16.632Z,26.40
2023-04-30T03:48:45.891Z,26.40
2023-04-30T03:51:15.060Z,26.40
2023-04-30T03:53:44.322Z,26.40
2023-04-30T03:56:13.449Z,26.50
2023-04-30T03:58:42.559Z,26.50
2023-04-30T04:01:11.898Z,26.40
2023-04-30T04:03:40.965Z,26.40
2023-04-30T04:06:10.037Z,26.40
2023-04-30T04:08:39.060Z,26.40
2023-04-30T04:11:08.107Z,26.50
2023-04-30T04:13:37.098Z,26.50
2023-04-30T04:16:06.241Z,26.50
2023-04-30T04:18:35.233Z,26.50
2023-04-30T04:21:04.275Z,26.60
2023-04-30T04:23:33.294Z,26.60
2023-04-30T04:26:02.918Z,26.70
2023-04-30T04:28:32.019Z,26.80
2023-04-30T04:31:01.256Z,26.90
2023-04-30T04:33:30.364Z,27.00
2023-04-30T04:35:59.492Z,27.00
2023-04-30T04:38:28.523Z,27.10
2023-04-30T04:40:57.888Z,27.20
2023-04-30T04:43:30.813Z,27.30
2023-04-30T04:45:59.875Z,27.50
2023-04-30T04:48:28.934Z,27.50
2023-04-30T04:50:57.896Z,27.70
2023-04-30T04:53:26.929Z,27.80
2023-04-30T04:55:56.245Z,28.00
2023-04-30T04:58:25.366Z,28.20
2023-04-30T05:00:54.725Z,28.30
2023-04-30T05:03:24.013Z,28.50
2023-04-30T05:05:53.087Z,28.60
2023-04-30T05:08:22.128Z,28.80
2023-04-30T05:10:51.410Z,29.00
2023-04-30T05:13:20.388Z,29.20
2023-04-30T05:15:52.729Z,29.40
2023-04-30T05:18:22.328Z,29.60
2023-04-30T05:20:51.364Z,29.80
2023-04-30T05:23:20.381Z,29.80
2023-04-30T05:25:54.192Z,29.90
2023-04-30T05:28:22.986Z,30.00
2023-04-30T05:30:52.020Z,30.10
2023-04-30T05:33:21.006Z,30.20
2023-04-30T05:35:50.028Z,30.30
2023-04-30T05:38:19.099Z,30.60
2023-04-30T05:40:48.229Z,30.70
2023-04-30T05:43:17.282Z,31.00
2023-04-30T05:45:46.324Z,31.20
2023-04-30T05:48:15.375Z,31.50
2023-04-30T05:50:44.753Z,31.80
2023-04-30T05:53:14.617Z,32.00
2023-04-30T05:55:43.748Z,32.20
2023-04-30T05:58:12.754Z,32.30
2023-04-30T06:00:41.798Z,32.50
2023-04-30T06:03:11.027Z,32.60
2023-04-30T06:05:42.562Z,32.60
2023-04-30T06:08:11.696Z,32.70
2023-04-30T06:10:40.817Z,32.80
2023-04-30T06:13:09.842Z,33.00
2023-04-30T06:15:38.850Z,33.10
2023-04-30T06:18:07.913Z,33.20
2023-04-30T06:20:36.906Z,33.10
2023-04-30T06:23:06.015Z,33.00
2023-04-30T06:25:35.002Z,32.80
2023-04-30T06:28:03.966Z,32.60
2023-04-30T06:30:34.506Z,32.50
2023-04-30T06:33:03.793Z,32.10
2023-04-30T06:35:32.796Z,31.90
2023-04-30T06:38:01.878Z,31.70
2023-04-30T06:40:31.036Z,31.60
2023-04-30T06:43:00.207Z,31.40
2023-04-30T06:45:30.086Z,31.30
2023-04-30T06:48:00.778Z,31.20
2023-04-30T06:50:29.964Z,31.20
2023-04-30T06:52:59.051Z,31.20
2023-04-30T06:55:29.235Z,31.20
2023-04-30T06:57:59.140Z,31.10
2023-04-30T07:00:28.216Z,31.10
2023-04-30T07:02:58.493Z,31.20
2023-04-30T07:05:28.040Z,31.20
2023-04-30T07:07:57.987Z,31.30
2023-04-30T07:10:27.571Z,31.40
2023-04-30T07:12:56.778Z,31.60
2023-04-30T07:15:25.863Z,31.80
2023-04-30T07:17:54.977Z,31.90
2023-04-30T07:20:24.129Z,32.00
2023-04-30T07:22:53.160Z,32.20
2023-04-30T07:25:22.136Z,32.20
2023-04-30T07:27:52.796Z,32.40
2023-04-30T07:30:22.980Z,32.40
2023-04-30T07:32:53.554Z,32.30
2023-04-30T07:35:22.587Z,32.30
2023-04-30T07:37:51.566Z,32.30
2023-04-30T07:40:29.107Z,32.30
2023-04-30T07:43:05.270Z,32.20
2023-04-30T07:45:36.082Z,32.10
2023-04-30T07:48:05.829Z,32.10
2023-04-30T07:50:35.150Z,32.10
2023-04-30T07:53:04.561Z,32.20
2023-04-30T07:55:33.562Z,32.30
2023-04-30T07:58:04.970Z,32.30
2023-04-30T08:00:33.949Z,32.20
2023-04-30T08:03:03.104Z,32.20
2023-04-30T08:05:32.067Z,32.20
2023-04-30T08:08:01.091Z,32.30
2023-04-30T08:10:30.181Z,32.30
2023-04-30T08:12:59.208Z,32.40
2023-04-30T08:15:30.697Z,32.50
2023-04-30T08:18:02.085Z,32.60
2023-04-30T08:20:31.520Z,32.60
2023-04-30T08:23:00.484Z,32.80
2023-04-30T08:25:31.227Z,32.80
2023-04-30T08:28:01.182Z,32.80
2023-04-30T08:30:30.225Z,32.80
2023-04-30T08:32:59.428Z,32.90
2023-04-30T08:35:30.856Z,32.90
2023-04-30T08:37:59.991Z,32.90
2023-04-30T08:40:49.317Z,32.90
2023-04-30T08:43:19.786Z,32.90
2023-04-30T08:45:48.965Z,32.90
2023-04-30T08:48:18.487Z,33.00
2023-04-30T08:50:47.617Z,33.00
2023-04-30T08:53:18.606Z,33.00
2023-04-30T08:55:48.293Z,33.00
2023-04-30T08:58:17.338Z,33.00
2023-04-30T09:00:46.459Z,33.00
2023-04-30T09:03:15.593Z,33.10
2023-04-30T09:05:44.703Z,33.10
2023-04-30T09:08:20.759Z,33.00
2023-04-30T09:10:49.780Z,32.90
2023-04-30T09:13:18.796Z,32.80
2023-04-30T09:15:53.515Z,32.80
2023-04-30T09:18:23.021Z,32.70
2023-04-30T09:21:04.479Z,32.60
2023-04-30T09:23:33.512Z,32.60
2023-04-30T09:26:02.657Z,32.50
2023-04-30T09:28:31.733Z,32.50
2023-04-30T09:31:00.892Z,32.40
2023-04-30T09:33:31.384Z,32.40
2023-04-30T09:36:10.064Z,32.30
2023-04-30T09:38:39.166Z,32.30
2023-04-30T09:41:09.979Z,32.20
2023-04-30T09:43:47.146Z,32.20
2023-04-30T09:46:16.409Z,32.10
2023-04-30T09:48:47.056Z,32.10
2023-04-30T09:51:16.469Z,32.10
2023-04-30T09:53:46.053Z,32.10
2023-04-30T09:56:17.133Z,32.10
2023-04-30T09:58:48.955Z,32.00
2023-04-30T10:01:19.354Z,32.00
2023-04-30T10:03:49.526Z,32.10
2023-04-30T10:06:20.495Z,32.00
2023-04-30T10:08:52.716Z,32.10
2023-04-30T10:11:23.503Z,32.10
2023-04-30T10:14:03.104Z,32.10
2023-04-30T10:16:50.355Z,32.10
2023-04-30T10:19:26.258Z,32.10
2023-04-30T10:21:55.657Z,32.10
2023-04-30T10:24:24.800Z,32.10
2023-04-30T10:26:54.050Z,32.00
2023-04-30T10:29:23.100Z,31.90
2023-04-30T10:31:53.847Z,31.80
2023-04-30T10:34:44.208Z,31.80
2023-04-30T10:37:34.872Z,31.60
2023-04-30T10:40:06.299Z,31.60
2023-04-30T10:42:37.623Z,31.50
2023-04-30T10:45:06.980Z,31.50
2023-04-30T10:47:37.677Z,31.30
2023-04-30T10:50:10.339Z,31.20
2023-04-30T10:52:40.623Z,31.10
2023-04-30T10:55:12.618Z,31.00
2023-04-30T10:57:47.803Z,30.80
2023-04-30T11:00:28.483Z,30.80
2023-04-30T11:03:05.570Z,30.60
2023-04-30T11:05:39.935Z,30.60
2023-04-30T11:08:13.325Z,30.50
2023-04-30T11:11:02.906Z,30.40
2023-04-30T11:13:40.352Z,30.30
2023-04-30T11:16:09.592Z,30.30
2023-04-30T11:18:48.511Z,30.20
2023-04-30T11:21:17.507Z,30.20
2023-04-30T11:23:52.624Z,30.10
2023-04-30T11:26:22.393Z,30.10
2023-04-30T11:28:55.570Z,30.00
2023-04-30T11:31:34.270Z,30.00
2023-04-30T11:34:04.794Z,29.90
2023-04-30T11:36:35.104Z,29.80
2023-04-30T11:39:09.161Z,29.80
2023-04-30T11:41:43.160Z,29.80
2023-04-30T11:44:44.379Z,29.70
2023-04-30T11:47:16.834Z,29.70
2023-04-30T11:49:45.885Z,29.70
2023-04-30T11:52:22.364Z,29.70
2023-04-30T11:54:51.395Z,29.60
2023-04-30T11:57:20.385Z,29.60
2023-04-30T11:59:50.450Z,29.60
2023-04-30T12:02:19.895Z,29.60
2023-04-30T12:04:49.683Z,29.50
2023-04-30T12:07:19.913Z,29.50
2023-04-30T12:10:00.570Z,29.50
2023-04-30T12:12:31.072Z,29.40
2023-04-30T12:15:00.620Z,29.40
2023-04-30T12:17:34.946Z,29.40
2023-04-30T12:20:06.245Z,29.30
2023-04-30T12:22:35.320Z,29.30
2023-04-30T12:25:14.979Z,29.30
2023-04-30T12:27:47.198Z,29.20
2023-04-30T12:30:16.547Z,29.20
2023-04-30T12:32:47.709Z,29.20
2023-04-30T12:35:22.201Z,29.10
2023-04-30T12:37:56.163Z,29.10
2023-04-30T12:40:29.699Z,29.00
2023-04-30T12:43:09.534Z,29.00
2023-04-30T12:46:04.937Z,29.00
2023-04-30T12:48:48.150Z,29.00
2023-04-30T12:51:21.823Z,29.00
2023-04-30T12:53:50.821Z,28.90
2023-04-30T12:56:20.873Z,28.90
2023-04-30T12:58:50.922Z,28.90
2023-04-30T13:01:26.344Z,28.80
2023-04-30T13:03:55.676Z,28.80
2023-04-30T13:06:25.099Z,28.80
2023-04-30T13:08:58.654Z,28.80
2023-04-30T13:11:28.083Z,28.80
2023-04-30T13:13:57.244Z,28.80
2023-04-30T13:16:26.742Z,28.80
2023-04-30T13:18:56.063Z,28.80
2023-04-30T13:21:26.130Z,28.80
2023-04-30T13:23:56.598Z,28.80
2023-04-30T13:26:27.713Z,28.80
2023-04-30T13:28:56.832Z,28.80
2023-04-30T13:31:25.928Z,28.70
2023-04-30T13:33:56.100Z,28.70
2023-04-30T13:36:25.133Z,28.70
2023-04-30T13:38:54.438Z,28.70
2023-04-30T13:41:23.738Z,28.70
2023-04-30T13:43:52.715Z,28.70
2023-04-30T13:46:21.861Z,28.70
2023-04-30T13:48:53.043Z,28.70
2023-04-30T13:51:22.350Z,28.60
2023-04-30T13:53:51.425Z,28.60
2023-04-30T13:56:20.503Z,28.70
2023-04-30T13:58:49.490Z,28.60
2023-04-30T14:01:18.469Z,28.60
2023-04-30T14:03:48.885Z,28.60
2023-04-30T14:06:18.120Z,28.60
2023-04-30T14:08:47.321Z,28.60
2023-04-30T14:11:16.529Z,28.60
2023-04-30T14:13:45.576Z,28.50
2023-04-30T14:16:14.616Z,28.50
2023-04-30T14:18:43.802Z,28.50
2023-04-30T14:21:12.974Z,28.50
2023-04-30T14:23:42.894Z,28.50
2023-04-30T14:26:11.921Z,28.40
2023-04-30T14:28:41.022Z,28.40
2023-04-30T14:31:10.563Z,28.40
2023-04-30T14:33:39.713Z,28.40
2023-04-30T14:36:09.393Z,28.30
2023-04-30T14:38:38.549Z,28.30
2023-04-30T14:41:07.602Z,28.30
2023-04-30T14:43:36.880Z,28.30
2023-04-30T14:46:06.139Z,28.20
2023-04-30T14:48:35.232Z,28.20
2023-04-30T14:51:04.236Z,28.20
2023-04-30T14:53:33.621Z,28.20
2023-04-30T14:56:02.680Z,28.10
2023-04-30T14:58:31.814Z,28.10
2023-04-30T15:01:01.025Z,28.00
2023-04-30T15:03:30.631Z,28.00
2023-04-30T15:05:59.812Z,27.90
2023-04-30T15:08:28.829Z,27.90
2023-04-30T15:10:58.731Z,27.90
2023-04-30T15:13:27.818Z,27.90
2023-04-30T15:15:57.151Z,27.90
2023-04-30T15:18:26.216Z,27.80
2023-04-30T15:20:55.203Z,27.80
2023-04-30T15:23:24.199Z,27.80
2023-04-30T15:25:53.309Z,27.80
2023-04-30T15:28:23.036Z,27.70
2023-04-30T15:30:53.450Z,27.70
2023-04-30T15:33:22.704Z,27.70
2023-04-30T15:35:51.773Z,27.70
2023-04-30T15:38:20.949Z,27.70
2023-04-30T15:40:50.503Z,27.60
2023-04-30T15:43:19.594Z,27.70
2023-04-30T15:45:49.577Z,27.60
2023-04-30T15:48:18.545Z,27.60
2023-04-30T15:50:47.523Z,27.50
2023-04-30T15:53:17.204Z,27.50
2023-04-30T15:55:47.794Z,27.40
2023-04-30T15:58:17.409Z,27.40
2023-04-30T16:00:46.546Z,27.40
2023-04-30T16:03:15.662Z,27.40
2023-04-30T16:05:45.109Z,27.30
2023-04-30T16:08:14.249Z,27.30
2023-04-30T16:10:44.580Z,27.30
2023-04-30T16:13:13.576Z,27.30
2023-04-30T16:15:42.585Z,27.30
2023-04-30T16:18:11.727Z,27.30
2023-04-30T16:20:43.565Z,27.30
2023-04-30T16:23:12.807Z,27.30
2023-04-30T16:25:42.081Z,27.20
2023-04-30T16:28:11.127Z,27.20
2023-04-30T16:30:40.256Z,27.10
2023-04-30T16:33:10.062Z,27.10
2023-04-30T16:35:39.181Z,27.10
2023-04-30T16:38:08.229Z,27.10
2023-04-30T16:40:37.227Z,27.00
2023-04-30T16:43:07.238Z,27.10
2023-04-30T16:45:36.879Z,27.00
2023-04-30T16:48:06.181Z,27.00
2023-04-30T16:50:35.275Z,27.00
2023-04-30T16:53:04.243Z,27.00
2023-04-30T16:55:33.301Z,27.00
2023-04-30T16:58:02.259Z,27.00
2023-04-30T17:00:31.815Z,26.90
2023-04-30T17:03:00.932Z,27.00
2023-04-30T17:05:29.993Z,27.00
2023-04-30T17:07:59.079Z,26.90
2023-04-30T17:10:28.548Z,26.90
2023-04-30T17:13:05.213Z,26.90
2023-04-30T17:15:34.283Z,26.90
2023-04-30T17:18:03.494Z,26.90
2023-04-30T17:20:33.392Z,26.80
2023-04-30T17:23:03.100Z,26.90
2023-04-30T17:25:33.078Z,26.80
2023-04-30T17:28:02.527Z,26.80
2023-04-30T17:30:31.584Z,26.80
2023-04-30T17:33:01.472Z,26.80
2023-04-30T17:35:30.545Z,26.80
2023-04-30T17:38:00.622Z,26.70
2023-04-30T17:40:29.594Z,26.70
2023-04-30T17:42:58.595Z,26.70
2023-04-30T17:45:28.087Z,26.70
2023-04-30T17:47:57.103Z,26.70
2023-04-30T17:50:26.170Z,26.70
2023-04-30T17:52:55.204Z,26.70
2023-04-30T17:55:24.862Z,26.70
2023-04-30T17:57:53.923Z,26.60
2023-04-30T18:00:22.912Z,26.60
2023-04-30T18:02:52.329Z,26.60
2023-04-30T18:05:21.442Z,26.60
2023-04-30T18:07:50.678Z,26.50
2023-04-30T18:10:20.103Z,26.50
2023-04-30T18:12:49.098Z,26.50
2023-04-30T18:15:18.214Z,26.50
2023-04-30T18:17:47.247Z,26.50
2023-04-30T18:20:16.277Z,26.50
2023-04-30T18:22:45.337Z,26.50
2023-04-30T18:25:15.246Z,26.40
2023-04-30T18:27:44.409Z,26.40
2023-04-30T18:30:13.997Z,26.40
2023-04-30T18:32:44.509Z,26.40
2023-04-30T18:35:13.717Z,26.40
2023-04-30T18:37:42.771Z,26.40
2023-04-30T18:40:12.246Z,26.30
2023-04-30T18:42:41.261Z,26.40
2023-04-30T18:45:11.179Z,26.30
2023-04-30T18:47:40.272Z,26.30
2023-04-30T18:50:16.599Z,26.30
2023-04-30T18:52:46.426Z,26.30
2023-04-30T18:55:15.485Z,26.30
2023-04-30T18:57:44.684Z,26.20
2023-04-30T19:00:15.361Z,26.20
2023-04-30T19:02:44.550Z,26.20
2023-04-30T19:05:13.666Z,26.20
2023-04-30T19:07:42.651Z,26.20
2023-04-30T19:10:12.023Z,26.20
2023-04-30T19:12:41.706Z,26.20
2023-04-30T19:15:12.813Z,26.20
2023-04-30T19:17:42.150Z,26.20
2023-04-30T19:20:12.598Z,26.20
2023-04-30T19:22:42.067Z,26.20
2023-04-30T19:25:11.671Z,26.20
2023-04-30T19:27:41.050Z,26.20
2023-04-30T19:30:10.605Z,26.20
2023-04-30T19:32:39.657Z,26.20
2023-04-30T19:35:09.282Z,26.20
2023-04-30T19:37:38.553Z,26.20
2023-04-30T19:40:14.299Z,26.20
2023-04-30T19:42:43.300Z,26.20
2023-04-30T19:45:12.845Z,26.20
2023-04-30T19:47:42.281Z,26.30
2023-04-30T19:50:11.819Z,26.30
2023-04-30T19:52:40.889Z,26.20
2023-04-30T19:55:10.559Z,26.30
2023-04-30T19:57:39.664Z,26.20
2023-04-30T20:00:09.818Z,26.20
2023-04-30T20:02:38.877Z,26.30
2023-04-30T20:05:08.393Z,26.30
2023-04-30T20:07:37.606Z,26.30
2023-04-30T20:10:07.155Z,26.30
2023-04-30T20:12:36.114Z,26.30
2023-04-30T20:15:05.275Z,26.30
2023-04-30T20:17:35.233Z,26.30
2023-04-30T20:20:04.477Z,26.30
2023-04-30T20:22:33.490Z,26.30
2023-04-30T20:25:03.772Z,26.30
2023-04-30T20:27:32.799Z,26.30
2023-04-30T20:30:02.640Z,26.30
2023-04-30T20:32:32.443Z,26.30
2023-04-30T20:35:01.468Z,26.30
2023-04-30T20:37:30.484Z,26.30
2023-04-30T20:39:59.437Z,26.30
2023-04-30T20:42:28.638Z,26.30
2023-04-30T20:44:57.859Z,26.30
2023-04-30T20:47:26.893Z,26.30
2023-04-30T20:49:56.303Z,26.30
2023-04-30T20:52:25.490Z,26.30
2023-04-30T20:54:54.450Z,26.30
2023-04-30T20:57:23.443Z,26.30
2023-04-30T20:59:52.456Z,26.30
2023-04-30T21:02:21.422Z,26.30
2023-04-30T21:04:50.699Z,26.30
2023-04-30T21:07:19.715Z,26.30
2023-04-30T21:09:49.469Z,26.30
2023-04-30T21:12:18.829Z,26.30
2023-04-30T21:14:48.014Z,26.20
2023-04-30T21:17:17.053Z,26.20
2023-04-30T21:19:46.069Z,26.20
2023-04-30T21:22:15.065Z,26.20
2023-04-30T21:24:44.616Z,26.10
2023-04-30T21:27:13.657Z,26.10
2023-04-30T21:29:48.086Z,26.10
2023-04-30T21:32:18.040Z,26.10
2023-04-30T21:34:47.086Z,26.00
2023-04-30T21:37:17.248Z,26.00
2023-04-30T21:39:46.498Z,26.00
2023-04-30T21:42:15.505Z,26.00
2023-04-30T21:44:44.644Z,26.00
2023-04-30T21:47:13.606Z,26.10
2023-04-30T21:49:43.817Z,26.10
2023-04-30T21:52:12.904Z,26.00
2023-04-30T21:54:42.114Z,26.00
2023-04-30T21:57:11.103Z,26.10
2023-04-30T21:59:40.086Z,26.00
2023-04-30T22:02:20.288Z,26.00
2023-04-30T22:04:52.350Z,26.00
2023-04-30T22:07:21.294Z,26.00
2023-04-30T22:09:50.421Z,26.00
2023-04-30T22:12:22.510Z,26.00
2023-04-30T22:14:55.248Z,25.90
2023-04-30T22:17:24.932Z,25.90
2023-04-30T22:19:54.253Z,25.90
2023-04-30T22:22:23.747Z,25.90
2023-04-30T22:24:53.527Z,25.90
2023-04-30T22:27:22.818Z,25.80
2023-04-30T22:29:52.082Z,25.80
2023-04-30T22:32:21.152Z,25.80
2023-04-30T22:34:51.788Z,25.80
2023-04-30T22:37:20.805Z,25.80
2023-04-30T22:39:49.811Z,25.70
2023-04-30T22:42:18.965Z,25.70
2023-04-30T22:44:48.177Z,25.70
2023-04-30T22:47:17.534Z,25.70
2023-04-30T22:49:46.626Z,25.70
2023-04-30T22:52:15.595Z,25.70
2023-04-30T22:54:44.669Z,25.70
2023-04-30T22:57:13.653Z,25.70
2023-04-30T22:59:42.627Z,25.70
2023-04-30T23:02:11.566Z,25.70
2023-04-30T23:04:40.683Z,25.70
2023-04-30T23:07:10.223Z,25.70
2023-04-30T23:09:39.193Z,25.70
2023-04-30T23:12:08.290Z,25.70
2023-04-30T23:14:37.270Z,25.70
2023-04-30T23:17:06.383Z,25.70
2023-04-30T23:19:35.711Z,25.70
2023-04-30T23:22:04.690Z,25.70
2023-04-30T23:24:37.084Z,25.70
2023-04-30T23:27:06.146Z,25.80
2023-04-30T23:29:36.332Z,25.80
2023-04-30T23:32:05.911Z,25.80
2023-04-30T23:34:35.034Z,25.90
2023-04-30T23:37:04.233Z,25.90
2023-04-30T23:39:33.545Z,26.00
2023-04-30T23:42:03.681Z,26.00
2023-04-30T23:44:32.871Z,26.10
2023-04-30T23:47:04.962Z,26.10
2023-04-30T23:49:33.967Z,26.20
2023-04-30T23:52:03.008Z,26.20
2023-04-30T23:54:32.010Z,26.30
2023-04-30T23:57:01.566Z,26.40
2023-04-30T23:59:30.628Z,26.40
